Time;durP1;ratioP1;P1;durP2;ratioP2;P2;SDS_P1;SDS_P2;PMS_P1;PMS_P2;Temp;Humidity;BMP_temperature;BMP_pressure;BME280_temperature;BME280_humidity;BME280_pressure;Samples;Min_cycle;Max_cycle;Signal;HPM_P1;HPM_P2
2023/11/29 00:00:26;;;;;;;3.08;1.42;;;;;;;-8.75;69.45;99256.44;5063376;28;20059;-64
2023/11/29 00:02:51;;;;;;;0.60;0.60;;;;;;;-8.77;69.69;99253.84;5064895;28;20029;-64
2023/11/29 00:05:17;;;;;;;0.60;0.60;;;;;;;-8.76;69.63;99253.09;5065275;28;20024;-63
2023/11/29 00:07:45;;;;;;;0.60;0.60;;;;;;;-8.76;69.79;99257.25;5065429;28;20096;-64
2023/11/29 00:10:10;;;;;;;1.35;1.25;;;;;;;-8.78;69.83;99259.69;5065436;28;20047;-64
2023/11/29 00:12:36;;;;;;;0.60;0.60;;;;;;;-8.81;69.88;99254.50;5047190;28;20025;-64
2023/11/29 00:15:02;;;;;;;0.60;0.60;;;;;;;-8.78;69.85;99258.81;5065110;28;20089;-65
2023/11/29 00:17:27;;;;;;;0.60;0.60;;;;;;;-8.77;69.71;99256.38;5047246;28;20060;-65
2023/11/29 00:19:52;;;;;;;0.65;0.65;;;;;;;-8.76;69.59;99253.09;5065085;28;20110;-65
2023/11/29 00:22:18;;;;;;;0.70;0.70;;;;;;;-8.81;69.60;99248.59;5065087;28;20052;-65
2023/11/29 00:24:46;;;;;;;1.38;1.35;;;;;;;-8.83;69.40;99248.50;5064942;28;20043;-65
2023/11/29 00:27:15;;;;;;;0.80;0.80;;;;;;;-8.79;69.50;99255.44;5046991;28;20021;-64
2023/11/29 00:29:40;;;;;;;0.60;0.60;;;;;;;-8.89;69.44;99240.66;5064982;28;20155;-66
2023/11/29 00:32:05;;;;;;;1.35;1.13;;;;;;;-8.81;69.64;99249.47;5065371;28;20424;-64
2023/11/29 00:34:31;;;;;;;0.50;0.50;;;;;;;-8.91;69.47;99222.97;5068537;22;20049;-69
2023/11/29 00:36:58;;;;;;;0.60;0.60;;;;;;;-8.80;69.47;99241.13;5066629;23;20424;-68
2023/11/29 00:39:23;;;;;;;0.60;0.60;;;;;;;-8.89;69.34;99233.97;5030825;23;20049;-65
2023/11/29 00:41:48;;;;;;;0.68;0.68;;;;;;;-8.80;69.41;99241.13;5025164;28;20394;-64
2023/11/29 00:44:14;;;;;;;0.60;0.60;;;;;;;-8.84;69.34;99230.06;5025178;28;20065;-65
2023/11/29 00:46:39;;;;;;;0.60;0.60;;;;;;;-8.82;69.56;99237.69;5077553;22;20053;-64
2023/11/29 00:49:05;;;;;;;0.60;0.60;;;;;;;-8.83;69.65;99243.47;5043788;28;20034;-64
2023/11/29 00:51:30;;;;;;;0.60;0.60;;;;;;;-8.86;69.74;99230.75;5060186;22;20049;-69
2023/11/29 00:53:55;;;;;;;0.68;0.68;;;;;;;-8.81;69.70;99239.41;5027144;28;20464;-70
2023/11/29 00:56:21;;;;;;;0.70;0.70;;;;;;;-8.84;69.31;99234.22;5064461;22;20073;-69
2023/11/29 00:58:46;;;;;;;0.60;0.60;;;;;;;-8.81;69.52;99241.03;5044845;28;20103;-69
2023/11/29 01:01:11;;;;;;;0.70;0.70;;;;;;;-8.83;69.59;99243.47;5064965;28;20024;-69
2023/11/29 01:03:37;;;;;;;0.60;0.60;;;;;;;-8.91;69.46;99239.72;5046745;28;20111;-69
2023/11/29 01:06:02;;;;;;;0.70;0.70;;;;;;;-8.85;69.53;99248.44;5077659;22;20049;-69
2023/11/29 01:08:28;;;;;;;0.70;0.70;;;;;;;-8.89;69.58;99243.16;5046895;28;20025;-69
2023/11/29 01:10:53;;;;;;;0.60;0.60;;;;;;;-8.87;69.62;99241.59;5063429;28;20021;-69
2023/11/29 01:13:20;;;;;;;0.70;0.70;;;;;;;-8.87;69.63;99249.16;5064642;28;20036;-69
2023/11/29 01:15:49;;;;;;;0.60;0.60;;;;;;;-8.92;69.61;99237.97;5064721;28;20033;-69
2023/11/29 01:18:16;;;;;;;0.60;0.60;;;;;;;-8.88;69.55;99240.72;5063366;28;20048;-69
2023/11/29 01:20:42;;;;;;;0.60;0.60;;;;;;;-8.90;69.56;99229.75;5063089;28;20059;-69
2023/11/29 01:23:07;;;;;;;0.70;0.70;;;;;;;-8.97;69.57;99223.53;5070968;23;20120;-63
2023/11/29 01:25:34;;;;;;;0.70;0.70;;;;;;;-8.96;69.55;99225.25;5064385;28;20071;-65
2023/11/29 01:28:00;;;;;;;0.60;0.60;;;;;;;-8.99;69.48;99231.78;5073813;22;20057;-69
2023/11/29 01:30:26;;;;;;;0.60;0.60;;;;;;;-8.99;69.81;99231.78;5077376;22;20044;-70
2023/11/29 01:32:52;;;;;;;1.58;1.48;;;;;;;-9.09;69.87;99212.84;5070881;23;20085;-64
2023/11/29 01:35:17;;;;;;;0.60;0.60;;;;;;;-9.12;69.93;99208.50;5064223;28;20033;-65
2023/11/29 01:37:42;;;;;;;0.70;0.70;;;;;;;-9.00;70.02;99217.47;5051873;23;20079;-69
2023/11/29 01:40:08;;;;;;;0.80;0.80;;;;;;;-8.98;69.95;99216.75;5064162;28;20032;-69
2023/11/29 01:42:35;;;;;;;0.60;0.60;;;;;;;-8.96;70.08;99227.78;5063646;28;20029;-70
2023/11/29 01:45:00;;;;;;;0.75;0.75;;;;;;;-8.95;70.15;99226.13;5064465;28;20029;-70
2023/11/29 01:47:26;;;;;;;0.70;0.70;;;;;;;-8.91;70.06;99224.63;5065512;28;20048;-69
2023/11/29 01:49:51;;;;;;;1.08;1.00;;;;;;;-8.91;70.22;99222.13;5068047;28;20025;-68
2023/11/29 01:52:17;;;;;;;0.70;0.70;;;;;;;-8.98;70.50;99214.25;5068035;28;20040;-69
2023/11/29 01:54:43;;;;;;;0.93;0.93;;;;;;;-8.94;70.50;99212.75;5067704;28;20076;-69
2023/11/29 01:57:08;;;;;;;0.60;0.60;;;;;;;-8.94;70.70;99216.94;5067844;28;20081;-69
2023/11/29 01:59:34;;;;;;;0.70;0.70;;;;;;;-8.93;70.94;99216.16;5086272;22;20057;-68
2023/11/29 02:02:00;;;;;;;0.70;0.70;;;;;;;-8.90;70.87;99208.75;5066478;28;20033;-68
2023/11/29 02:04:26;;;;;;;0.70;0.70;;;;;;;-8.93;70.97;99198.53;5091428;22;20080;-68
2023/11/29 02:06:51;;;;;;;0.60;0.60;;;;;;;-8.94;70.77;99201.84;5053779;23;20053;-64
2023/11/29 02:09:17;;;;;;;0.60;0.60;;;;;;;-8.91;70.64;99207.88;5047173;28;20045;-64
2023/11/29 02:11:44;;;;;;;1.33;1.27;;;;;;;-8.85;70.79;99214.88;5047755;28;20390;-63
2023/11/29 02:14:09;;;;;;;0.98;0.90;;;;;;;-8.85;70.63;99212.38;5047609;28;20037;-64
2023/11/29 02:16:36;;;;;;;0.60;0.60;;;;;;;-8.80;70.54;99215.97;5055958;22;20057;-69
2023/11/29 02:19:01;;;;;;;0.88;0.88;;;;;;;-8.88;70.53;99207.19;5069870;22;20053;-69
2023/11/29 02:21:27;;;;;;;0.60;0.60;;;;;;;-8.94;70.84;99206.88;5053876;22;20048;-64
2023/11/29 02:24:01;;;;;;;0.80;0.80;;;;;;;-8.97;70.98;99200.91;5058055;23;20069;-69
2023/11/29 02:26:29;;;;;;;0.65;0.65;;;;;;;-8.97;71.24;99195.00;5078830;22;20045;-69
2023/11/29 02:28:55;;;;;;;0.60;0.60;;;;;;;-8.93;71.17;99196.03;5069136;22;20061;-69
2023/11/29 02:31:20;;;;;;;0.60;0.60;;;;;;;-8.87;71.24;99199.72;5065067;23;20132;-64
2023/11/29 02:33:45;;;;;;;0.60;0.60;;;;;;;-8.84;70.98;99192.31;5047006;28;20045;-64
2023/11/29 02:36:11;;;;;;;0.65;0.65;;;;;;;-8.78;70.98;99198.41;5057351;22;20072;-68
2023/11/29 02:41:05;;;;;;;0.60;0.60;;;;;;;-8.72;70.99;99197.09;5066209;22;20049;-64
2023/11/29 02:43:31;;;;;;;0.60;0.60;;;;;;;-8.67;70.97;99189.75;5048898;28;20035;-64
2023/11/29 02:45:56;;;;;;;0.77;0.77;;;;;;;-8.59;71.01;99192.66;5066990;28;20033;-64
2023/11/29 02:48:21;;;;;;;0.70;0.70;;;;;;;-8.54;71.01;99196.22;5067056;28;20421;-65
2023/11/29 02:50:47;;;;;;;0.70;0.70;;;;;;;-8.51;71.02;99192.97;5067090;28;20021;-65
2023/11/29 02:53:12;;;;;;;0.63;0.63;;;;;;;-8.48;70.83;99193.16;5065432;28;20028;-65
2023/11/29 02:55:37;;;;;;;0.60;0.60;;;;;;;-8.46;70.88;99194.94;5066665;28;20032;-64
2023/11/29 02:58:03;;;;;;;1.10;1.10;;;;;;;-8.42;70.77;99185.03;5066111;28;20527;-64
2023/11/29 03:00:28;;;;;;;0.80;0.80;;;;;;;-8.36;70.59;99195.41;5065917;28;20024;-64
2023/11/29 03:02:55;;;;;;;0.60;0.60;;;;;;;-8.35;70.79;99189.56;5065921;28;20040;-63
2023/11/29 03:05:21;;;;;;;0.70;0.70;;;;;;;-8.40;70.73;99180.94;5066259;28;20497;-64
2023/11/29 03:07:47;;;;;;;1.73;1.63;;;;;;;-8.31;70.82;99183.03;5066316;28;20029;-65
2023/11/29 03:10:13;;;;;;;0.60;0.60;;;;;;;-8.27;70.84;99187.41;5048462;28;20033;-65
2023/11/29 03:12:39;;;;;;;0.70;0.70;;;;;;;-8.27;71.03;99190.78;5066166;28;20032;-64
2023/11/29 03:15:05;;;;;;;0.70;0.70;;;;;;;-8.38;71.06;99160.06;5066127;28;20047;-64
2023/11/29 03:17:30;;;;;;;1.00;0.98;;;;;;;-8.26;70.59;99177.41;5066694;23;20053;-69
2023/11/29 03:19:55;;;;;;;0.80;0.80;;;;;;;-8.22;70.67;99179.28;5084275;22;20061;-69
2023/11/29 03:22:21;;;;;;;0.82;0.82;;;;;;;-8.21;70.95;99182.69;5054216;22;20041;-65
2023/11/29 03:24:46;;;;;;;1.55;1.45;;;;;;;-8.32;70.61;99159.50;5073826;23;20029;-69
2023/11/29 03:27:12;;;;;;;1.43;1.33;;;;;;;-8.18;71.08;99182.81;5012954;23;1090356;-65
2023/11/29 03:29:37;;;;;;;1.00;0.98;;;;;;;-8.17;70.76;99171.94;5064611;28;20037;-65
2023/11/29 03:32:03;;;;;;;0.82;0.82;;;;;;;-8.13;70.99;99155.34;5056133;23;20083;-68
2023/11/29 03:34:28;;;;;;;0.70;0.70;;;;;;;-8.06;71.36;99169.06;5052706;22;20049;-64
2023/11/29 03:36:54;;;;;;;0.75;0.75;;;;;;;-8.03;71.34;99162.50;5045601;28;20037;-64
2023/11/29 03:39:19;;;;;;;0.70;0.70;;;;;;;-7.98;71.35;99161.06;5045711;28;20052;-64
2023/11/29 03:41:45;;;;;;;0.60;0.60;;;;;;;-7.89;71.25;99163.13;5052423;23;20059;-69
2023/11/29 03:44:10;;;;;;;1.45;1.02;;;;;;;-7.82;71.33;99161.78;5054169;22;20056;-65
2023/11/29 03:46:35;;;;;;;0.70;0.70;;;;;;;-7.75;71.45;99163.78;5065176;28;20025;-63
2023/11/29 03:49:01;;;;;;;0.60;0.60;;;;;;;-7.67;71.31;99163.25;5046003;28;20025;-64
2023/11/29 03:51:26;;;;;;;0.85;0.85;;;;;;;-7.69;71.25;99149.72;5047888;28;20025;-64
2023/11/29 03:53:51;;;;;;;0.88;0.88;;;;;;;-7.55;71.27;99161.28;5065711;28;20085;-65
2023/11/29 03:56:17;;;;;;;0.60;0.60;;;;;;;-7.51;71.63;99160.66;5065604;28;20208;-64
2023/11/29 03:58:42;;;;;;;0.70;0.70;;;;;;;-7.47;71.19;99144.84;5047264;28;20033;-64
2023/11/29 04:01:07;;;;;;;0.85;0.85;;;;;;;-7.43;71.11;99137.41;5084910;22;20867;-70
2023/11/29 04:03:33;;;;;;;1.27;1.27;;;;;;;-7.35;71.21;99146.19;5071555;22;20048;-65
2023/11/29 04:05:58;;;;;;;1.65;1.55;;;;;;;-7.32;71.70;99140.38;5047212;28;20378;-64
2023/11/29 04:08:23;;;;;;;0.65;0.65;;;;;;;-7.29;71.63;99130.44;5065313;28;20025;-66
2023/11/29 04:10:49;;;;;;;0.60;0.60;;;;;;;-7.25;71.59;99130.63;5064229;28;20102;-64
2023/11/29 04:13:14;;;;;;;0.60;0.60;;;;;;;-7.25;71.68;99135.66;5065247;28;20028;-64
2023/11/29 04:15:39;;;;;;;0.60;0.60;;;;;;;-7.23;71.63;99126.53;5065150;28;20032;-65
2023/11/29 04:18:05;;;;;;;2.13;1.40;;;;;;;-7.20;71.93;99130.81;5064999;28;20070;-65
2023/11/29 04:20:30;;;;;;;0.60;0.60;;;;;;;-7.18;72.07;99130.88;5074164;22;20025;-69
2023/11/29 04:22:55;;;;;;;1.00;1.00;;;;;;;-7.19;71.88;99116.56;5065091;28;20047;-69
2023/11/29 04:25:23;;;;;;;0.60;0.60;;;;;;;-7.12;71.85;99121.94;5053085;22;20053;-65
2023/11/29 04:27:48;;;;;;;0.60;0.60;;;;;;;-7.11;72.34;99120.28;5052358;22;20053;-69
2023/11/29 04:30:13;;;;;;;0.80;0.80;;;;;;;-7.07;72.35;99123.75;5065119;28;20044;-69
2023/11/29 04:32:39;;;;;;;0.88;0.88;;;;;;;-7.08;72.24;99117.88;5065010;28;20033;-69
2023/11/29 04:35:05;;;;;;;1.75;1.02;;;;;;;-7.09;72.63;99111.97;5078658;22;20080;-68
2023/11/29 04:37:30;;;;;;;0.90;0.90;;;;;;;-7.03;72.29;99113.91;5044591;28;20037;-69
2023/11/29 04:39:56;;;;;;;0.68;0.68;;;;;;;-6.96;72.32;99112.47;5044910;28;20029;-70
2023/11/29 04:42:21;;;;;;;0.65;0.65;;;;;;;-6.98;72.48;99112.41;5041631;28;20031;-69
2023/11/29 04:44:47;;;;;;;0.80;0.80;;;;;;;-6.87;71.83;99107.78;5046732;28;20058;-68
2023/11/29 04:47:12;;;;;;;0.50;0.50;;;;;;;-6.90;72.29;99105.13;5063220;22;20144;-64
2023/11/29 04:49:39;;;;;;;0.60;0.60;;;;;;;-6.88;72.13;99105.19;5086914;28;20048;-64
2023/11/29 04:52:05;;;;;;;0.70;0.70;;;;;;;-6.82;72.29;99113.03;5105029;28;20074;-64
2023/11/29 04:54:30;;;;;;;0.80;0.80;;;;;;;-6.79;72.08;99108.13;5105031;28;20027;-65
2023/11/29 04:56:56;;;;;;;0.60;0.60;;;;;;;-6.84;72.45;99102.88;5104918;28;20039;-64
2023/11/29 04:59:21;;;;;;;0.85;0.85;;;;;;;-6.79;72.20;99105.59;5104796;28;20019;-64
2023/11/29 05:01:46;;;;;;;0.60;0.60;;;;;;;-6.72;71.81;99101.63;5087015;28;20541;-64
2023/11/29 05:04:12;;;;;;;0.60;0.60;;;;;;;-6.62;71.78;99100.34;5105045;28;20024;-63
2023/11/29 05:06:37;;;;;;;0.70;0.70;;;;;;;-6.71;71.96;99088.25;5104812;28;20464;-65
2023/11/29 05:09:05;;;;;;;0.60;0.60;;;;;;;-6.73;72.22;99098.28;5105040;28;20019;-65
2023/11/29 05:11:31;;;;;;;0.50;0.50;;;;;;;-6.77;72.32;99091.34;5086646;28;20024;-65
2023/11/29 05:13:56;;;;;;;0.60;0.60;;;;;;;-6.80;72.58;99085.31;5104697;28;20050;-65
2023/11/29 05:16:22;;;;;;;1.08;1.08;;;;;;;-6.66;72.21;99086.75;5062434;22;20061;-69
2023/11/29 05:18:47;;;;;;;0.65;0.65;;;;;;;-6.66;72.07;99083.38;5068612;22;20045;-65
2023/11/29 05:21:12;;;;;;;0.68;0.68;;;;;;;-6.67;72.25;99076.56;5046334;28;20424;-66
2023/11/29 05:23:38;;;;;;;0.60;0.60;;;;;;;-6.60;72.17;99081.09;5067570;28;20013;-66
2023/11/29 05:26:03;;;;;;;0.60;0.60;;;;;;;-6.62;72.35;99083.56;5068171;28;20031;-65
2023/11/29 05:28:29;;;;;;;1.40;1.30;;;;;;;-6.50;71.81;99090.72;5050081;28;20052;-63
2023/11/29 05:30:54;;;;;;;0.63;0.63;;;;;;;-6.60;72.20;99086.13;5068455;28;20107;-63
2023/11/29 05:33:22;;;;;;;0.65;0.65;;;;;;;-6.61;72.34;99075.16;5070215;23;20080;-69
2023/11/29 05:35:47;;;;;;;1.00;1.00;;;;;;;-6.60;72.78;99084.44;5061776;22;20048;-69
2023/11/29 05:38:13;;;;;;;0.60;0.60;;;;;;;-6.53;72.53;99083.03;5054379;23;20061;-65
2023/11/29 05:40:38;;;;;;;3.35;3.05;;;;;;;-6.43;72.36;99088.44;5048305;28;20085;-65
2023/11/29 05:43:03;;;;;;;1.08;1.08;;;;;;;-6.36;72.27;99087.88;5042154;28;20101;-64
2023/11/29 05:45:29;;;;;;;0.60;0.60;;;;;;;-6.33;72.12;99082.94;5064898;28;20024;-65
2023/11/29 05:47:54;;;;;;;0.60;0.60;;;;;;;-6.33;72.30;99072.84;5082898;22;20080;-65
2023/11/29 05:50:20;;;;;;;0.60;0.60;;;;;;;-6.30;72.33;99079.66;5066217;28;20060;-65
2023/11/29 05:52:45;;;;;;;0.50;0.50;;;;;;;-6.26;72.42;99073.94;5048107;23;20137;-69
2023/11/29 05:55:11;;;;;;;0.60;0.60;;;;;;;-6.19;72.06;99080.06;5061027;22;20445;-69
2023/11/29 05:57:37;;;;;;;0.70;0.70;;;;;;;-6.18;72.26;99074.25;5045359;23;20033;-66
2023/11/29 06:00:09;;;;;;;0.70;0.70;;;;;;;-6.10;72.06;99076.22;5067733;28;20095;-66
2023/11/29 06:02:35;;;;;;;0.70;0.70;;;;;;;-6.10;72.22;99075.38;5067806;28;20086;-65
2023/11/29 06:05:04;;;;;;;0.60;0.60;;;;;;;-6.15;71.92;99059.19;5067406;28;20024;-65
2023/11/29 06:07:35;;;;;;;0.80;0.80;;;;;;;-6.12;71.51;99054.25;5040811;22;20061;31
2023/11/29 06:10:01;;;;;;;1.45;1.45;;;;;;;-5.97;71.60;99072.47;5045180;28;20097;-65
2023/11/29 06:12:27;;;;;;;2.83;1.67;;;;;;;-5.94;71.48;99074.22;5047397;28;20029;-65
2023/11/29 06:14:53;;;;;;;2.13;1.90;;;;;;;-5.89;71.57;99070.22;5067202;28;20021;-67
2023/11/29 06:17:18;;;;;;;0.65;0.65;;;;;;;-5.87;71.47;99075.31;5094489;23;20045;-68
2023/11/29 06:19:44;;;;;;;0.60;0.60;;;;;;;-5.88;71.32;99064.34;5076872;23;20044;-65
2023/11/29 06:22:10;;;;;;;0.90;0.90;;;;;;;-5.91;71.30;99063.41;5089500;28;20480;-65
2023/11/29 06:24:37;;;;;;;1.08;1.08;;;;;;;-5.87;71.27;99065.22;5107667;28;20028;-65
2023/11/29 06:27:18;;;;;;;0.60;0.60;;;;;;;-5.85;71.38;99073.72;5109767;23;20057;-68
2023/11/29 06:29:43;;;;;;;1.00;1.00;;;;;;;-5.94;71.46;99048.13;5061910;22;20029;-66
2023/11/29 06:32:09;;;;;;;0.60;0.60;;;;;;;-5.83;71.46;99063.66;5065415;28;20059;-68
2023/11/29 06:34:34;;;;;;;1.17;1.17;;;;;;;-5.77;71.66;99077.41;5065939;28;20009;-68
2023/11/29 06:36:59;;;;;;;0.60;0.60;;;;;;;-5.78;71.61;99065.53;5067036;28;20498;-69
2023/11/29 06:39:25;;;;;;;1.90;1.80;;;;;;;-5.78;71.56;99068.06;5049033;28;20029;-68
2023/11/29 06:41:50;;;;;;;2.22;2.03;;;;;;;-5.70;71.49;99065.81;5080961;22;20057;-69
2023/11/29 06:44:16;;;;;;;1.08;1.08;;;;;;;-5.80;71.67;99061.25;5066668;28;20025;-67
2023/11/29 06:46:41;;;;;;;0.60;0.60;;;;;;;-5.73;71.60;99063.19;5067028;28;20070;-69
2023/11/29 06:49:09;;;;;;;0.70;0.70;;;;;;;-5.77;72.26;99066.41;5067050;28;20032;-67
2023/11/29 06:51:34;;;;;;;0.70;0.70;;;;;;;-5.73;72.17;99056.47;5048251;28;20028;-68
2023/11/29 06:53:59;;;;;;;0.60;0.60;;;;;;;-5.82;72.45;99046.03;5065478;23;20049;-66
2023/11/29 06:56:25;;;;;;;0.60;0.60;;;;;;;-5.72;72.50;99060.69;5066155;28;20043;-66
2023/11/29 06:58:51;;;;;;;0.93;0.93;;;;;;;-5.70;72.69;99057.38;5066204;28;20020;-64
2023/11/29 07:01:17;;;;;;;2.22;2.05;;;;;;;-5.68;72.94;99061.69;5048457;28;20017;-65
2023/11/29 07:03:42;;;;;;;0.70;0.70;;;;;;;-5.61;72.66;99063.59;5066563;28;20036;-66
2023/11/29 07:06:08;;;;;;;1.45;1.35;;;;;;;-5.64;72.79;99042.44;5066754;28;20045;-66
2023/11/29 07:11:04;;;;;;;2.20;1.60;;;;;;;-5.64;73.29;99060.97;5055709;22;20045;-68
2023/11/29 07:13:30;;;;;;;1.65;1.55;;;;;;;-5.66;73.77;99054.16;5067489;23;20049;-66
2023/11/29 07:15:56;;;;;;;0.60;0.60;;;;;;;-5.63;73.72;99041.59;5065229;28;20056;-65
2023/11/29 07:18:25;;;;;;;1.15;1.13;;;;;;;-5.55;73.78;99047.81;5069044;22;20065;-66
2023/11/29 07:20:51;;;;;;;1.08;1.08;;;;;;;-5.45;73.14;99035.47;5070792;23;20481;-65
2023/11/29 07:23:16;;;;;;;0.77;0.75;;;;;;;-5.48;73.82;99034.53;5064242;28;20056;-64
2023/11/29 07:25:42;;;;;;;0.70;0.70;;;;;;;-5.49;73.95;99035.38;5064453;28;20032;-65
2023/11/29 07:28:07;;;;;;;0.60;0.60;;;;;;;-5.47;74.37;99043.88;5064127;28;20023;-66
2023/11/29 07:30:32;;;;;;;0.80;0.80;;;;;;;-5.40;74.20;99033.97;5064662;28;20017;-66
2023/11/29 07:32:58;;;;;;;0.77;0.77;;;;;;;-5.34;74.21;99026.56;5067184;22;20088;-68
2023/11/29 07:35:23;;;;;;;0.60;0.60;;;;;;;-5.35;74.28;99027.38;5063415;23;20049;-69
2023/11/29 07:37:48;;;;;;;0.95;0.95;;;;;;;-5.35;74.57;99010.53;5052160;22;20049;-65
2023/11/29 07:40:14;;;;;;;0.60;0.60;;;;;;;-5.28;74.53;99019.19;5046000;28;20017;-65
2023/11/29 07:42:39;;;;;;;0.60;0.60;;;;;;;-5.24;74.90;99018.47;5056050;22;20398;-67
2023/11/29 07:45:06;;;;;;;0.60;0.60;;;;;;;-5.23;74.76;99009.22;5051137;23;20112;-66
2023/11/29 07:50:14;;;;;;;0.60;0.60;;;;;;;-5.14;75.05;99014.56;5056600;28;20056;-66
2023/11/29 07:52:40;;;;;;;0.60;0.60;;;;;;;-5.11;75.13;99012.13;5065612;28;20021;-66
2023/11/29 07:55:07;;;;;;;1.17;1.17;;;;;;;-5.08;75.45;99016.47;5071789;22;20517;-66
2023/11/29 07:57:32;;;;;;;1.45;1.35;;;;;;;-4.95;74.73;99014.31;5064390;22;20093;-67
2023/11/29 07:59:58;;;;;;;1.20;1.15;;;;;;;-4.88;74.49;99014.56;5047287;28;20405;-67
2023/11/29 08:02:23;;;;;;;0.70;0.70;;;;;;;-4.87;74.99;99017.94;5065507;28;20039;-67
2023/11/29 08:04:49;;;;;;;0.70;0.70;;;;;;;-4.83;75.35;99013.81;5065459;28;20025;-66
2023/11/29 08:07:15;;;;;;;0.60;0.60;;;;;;;-4.76;75.24;99021.66;5065269;28;20044;-67
2023/11/29 08:09:40;;;;;;;0.60;0.60;;;;;;;-4.66;74.75;99012.69;5065533;28;20079;-68
2023/11/29 08:12:06;;;;;;;0.75;0.75;;;;;;;-4.54;74.56;99021.47;5065630;28;20051;-67
2023/11/29 08:14:32;;;;;;;0.68;0.68;;;;;;;-4.52;74.59;99014.78;5070530;22;20156;-66
2023/11/29 08:16:58;;;;;;;2.42;2.33;;;;;;;-4.44;74.61;99020.06;5043949;28;20096;-67
2023/11/29 08:19:23;;;;;;;0.80;0.80;;;;;;;-4.40;74.75;99010.06;5045565;28;20033;-67
2023/11/29 08:21:49;;;;;;;0.70;0.70;;;;;;;-4.33;74.53;99013.66;5064898;28;20067;-67
2023/11/29 08:24:14;;;;;;;0.60;0.60;;;;;;;-4.25;74.71;99027.38;5071410;22;20045;-66
2023/11/29 08:26:39;;;;;;;0.50;0.50;;;;;;;-4.26;74.89;99020.59;5036253;22;20157;-66
2023/11/29 08:29:05;;;;;;;0.60;0.60;;;;;;;-4.27;75.11;99021.44;5078196;22;20049;-64
2023/11/29 08:31:30;;;;;;;4.70;1.95;;;;;;;-4.25;75.01;99024.00;5043531;28;20025;-65
2023/11/29 08:33:55;;;;;;;0.60;0.60;;;;;;;-4.24;75.21;99019.00;5062896;28;20032;-64
2023/11/29 08:36:21;;;;;;;2.38;2.20;;;;;;;-4.21;74.95;99009.72;5067617;22;20061;-65
2023/11/29 08:38:47;;;;;;;0.70;0.70;;;;;;;-4.21;75.17;99007.19;5044544;28;20029;-67
2023/11/29 08:41:12;;;;;;;0.60;0.60;;;;;;;-4.19;75.36;99006.44;5057663;22;20140;-67
2023/11/29 08:43:38;;;;;;;1.10;1.10;;;;;;;-4.16;75.83;99001.47;5044797;28;20014;-66
2023/11/29 08:46:03;;;;;;;0.60;0.60;;;;;;;-4.09;75.79;99011.78;5053315;23;20109;-65
2023/11/29 08:48:29;;;;;;;0.70;0.70;;;;;;;-4.09;76.21;98999.09;5064922;28;20382;-65
2023/11/29 08:50:55;;;;;;;1.77;1.67;;;;;;;-4.06;76.66;99007.66;5064942;28;20110;-65
2023/11/29 08:53:22;;;;;;;0.80;0.80;;;;;;;-3.98;76.28;99002.81;5064855;28;20029;-65
2023/11/29 08:55:47;;;;;;;2.78;1.30;;;;;;;-3.96;76.58;98992.69;5064767;28;20025;-65
2023/11/29 08:58:13;;;;;;;0.55;0.55;;;;;;;-3.89;77.10;99002.19;5067496;28;20025;-65
2023/11/29 09:00:41;;;;;;;0.70;0.70;;;;;;;-3.85;77.14;98996.41;5066541;28;20017;-65
2023/11/29 09:03:08;;;;;;;0.65;0.63;;;;;;;-3.81;77.38;98995.66;5068834;28;20492;-65
2023/11/29 09:05:33;;;;;;;0.88;0.80;;;;;;;-3.70;77.41;99002.66;5068850;28;20077;-67
2023/11/29 09:07:58;;;;;;;1.10;1.10;;;;;;;-3.58;77.34;98995.41;5068971;28;20017;-66
2023/11/29 09:10:24;;;;;;;1.70;1.08;;;;;;;-3.44;76.49;98995.75;5050561;28;20028;-65
2023/11/29 09:12:50;;;;;;;0.80;0.80;;;;;;;-3.37;76.44;99001.84;5038701;22;20054;-67
2023/11/29 09:15:15;;;;;;;0.60;0.60;;;;;;;-3.40;76.98;98983.97;5084025;23;20135;-65
2023/11/29 09:17:44;;;;;;;1.08;1.08;;;;;;;-3.39;76.60;98973.91;5100287;22;20053;-68
2023/11/29 09:20:10;;;;;;;0.45;0.45;;;;;;;-3.19;76.58;98982.78;5056797;22;20041;-65
2023/11/29 09:22:35;;;;;;;0.80;0.80;;;;;;;-3.16;76.69;98983.75;5068355;28;20044;-65
2023/11/29 09:25:02;;;;;;;0.90;0.90;;;;;;;-3.20;76.77;98979.41;5050460;28;20032;-65
2023/11/29 09:27:28;;;;;;;0.50;0.50;;;;;;;-3.12;76.70;98977.94;5050313;28;20032;-65
2023/11/29 09:29:54;;;;;;;1.30;1.30;;;;;;;-3.08;76.50;98978.00;5050132;28;20041;-65
2023/11/29 09:32:19;;;;;;;0.63;0.63;;;;;;;-3.09;76.60;98963.56;5073011;22;20091;-67
2023/11/29 09:34:44;;;;;;;0.88;0.88;;;;;;;-2.94;76.74;98981.69;5048533;28;20051;-65
2023/11/29 09:37:10;;;;;;;0.90;0.90;;;;;;;-2.91;76.54;98971.63;5030334;28;20044;-65
2023/11/29 09:39:35;;;;;;;2.58;1.02;;;;;;;-2.86;76.38;98974.28;5030410;28;20085;-65
2023/11/29 09:42:02;;;;;;;0.60;0.60;;;;;;;-2.82;76.20;98982.81;5048245;28;20033;-65
2023/11/29 09:44:30;;;;;;;1.50;1.15;;;;;;;-2.82;76.46;98965.91;5047983;28;20028;-65
2023/11/29 09:46:57;;;;;;;0.55;0.55;;;;;;;-2.74;76.28;98974.56;5048339;28;20029;-66
2023/11/29 09:49:23;;;;;;;0.80;0.80;;;;;;;-2.71;76.39;98978.84;5068907;23;20096;-65
2023/11/29 09:51:49;;;;;;;0.52;0.52;;;;;;;-2.74;76.24;98964.38;5068025;28;20080;-65
2023/11/29 09:54:14;;;;;;;0.50;0.50;;;;;;;-2.68;76.24;98965.31;5067983;28;20025;-66
2023/11/29 09:56:41;;;;;;;0.50;0.50;;;;;;;-2.63;76.17;98966.28;5067807;28;20036;-66
2023/11/29 09:59:06;;;;;;;0.47;0.47;;;;;;;-2.50;76.03;98959.78;5067744;28;20512;-65
2023/11/29 10:01:45;;;;;;;0.50;0.50;;;;;;;-2.44;75.92;98953.97;5067883;28;20084;-66
2023/11/29 10:04:10;;;;;;;2.95;2.30;;;;;;;-2.37;75.80;98953.28;5067722;28;20024;-65
2023/11/29 10:06:36;;;;;;;0.60;0.60;;;;;;;-2.29;75.89;98946.69;5064570;28;20179;-65
2023/11/29 10:09:06;;;;;;;0.60;0.60;;;;;;;-2.30;75.89;98956.81;5066939;22;20053;31
2023/11/29 10:11:35;;;;;;;0.68;0.68;;;;;;;-2.30;75.52;98954.28;4988015;28;20046;-65
2023/11/29 10:14:04;;;;;;;0.50;0.50;;;;;;;-2.32;75.37;98956.78;5031087;23;20120;-66
2023/11/29 10:16:29;;;;;;;0.70;0.70;;;;;;;-2.31;75.47;98950.00;5028016;28;20030;-66
2023/11/29 10:18:55;;;;;;;0.60;0.60;;;;;;;-2.34;75.64;98943.19;5027731;28;20461;-65
2023/11/29 10:21:20;;;;;;;0.47;0.47;;;;;;;-2.40;75.55;98931.22;5053522;23;20085;-66
2023/11/29 10:23:47;;;;;;;1.95;1.48;;;;;;;-2.29;75.79;98941.59;5047445;28;20033;-65
2023/11/29 10:26:13;;;;;;;0.88;0.88;;;;;;;-2.25;75.82;98947.56;5047508;28;20029;-65
2023/11/29 10:28:40;;;;;;;0.70;0.70;;;;;;;-2.15;75.67;98941.88;5047169;28;20539;-64
2023/11/29 10:31:06;;;;;;;0.50;0.50;;;;;;;-2.09;75.78;98937.72;5047053;28;20026;-64
2023/11/29 10:33:32;;;;;;;0.50;0.50;;;;;;;-2.12;75.45;98934.28;5045839;28;20033;-64
2023/11/29 10:36:02;;;;;;;2.58;1.40;;;;;;;-2.12;75.23;98928.34;5070662;23;20060;-67
2023/11/29 10:38:37;;;;;;;1.00;1.00;;;;;;;-2.14;75.24;98924.94;5067178;28;20031;-65
2023/11/29 10:41:04;;;;;;;0.82;0.82;;;;;;;-2.22;75.08;98916.28;5066954;28;20056;-66
2023/11/29 10:43:34;;;;;;;0.70;0.70;;;;;;;-2.18;74.96;98925.69;5067103;28;20025;-66
2023/11/29 10:46:07;;;;;;;0.75;0.75;;;;;;;-2.19;75.09;98932.44;5070850;22;20445;-65
2023/11/29 10:48:40;;;;;;;0.50;0.50;;;;;;;-2.23;75.30;98925.59;5065087;28;20025;-65
2023/11/29 10:51:05;;;;;;;0.60;0.60;;;;;;;-2.15;75.17;98928.28;5065483;28;20040;-65
2023/11/29 10:53:31;;;;;;;1.67;1.52;;;;;;;-2.22;75.10;98929.00;5047519;28;20489;-65
2023/11/29 10:55:58;;;;;;;0.90;0.90;;;;;;;-2.21;74.92;98931.56;5047495;28;20079;-66
2023/11/29 10:58:34;;;;;;;0.50;0.50;;;;;;;-2.24;74.90;98939.16;5065154;28;20029;-66
2023/11/29 11:01:00;;;;;;;2.67;1.25;;;;;;;-2.32;75.09;98941.53;5066669;28;20108;-66
2023/11/29 11:03:46;;;;;;;0.80;0.80;;;;;;;-2.25;75.13;98942.50;5048794;28;20088;-66
2023/11/29 11:06:24;;;;;;;0.50;0.50;;;;;;;-2.22;75.01;98942.56;5066706;28;20080;-67
2023/11/29 11:08:53;;;;;;;0.73;0.73;;;;;;;-2.22;75.19;98939.19;5066639;28;20021;-65
2023/11/29 11:11:45;;;;;;;0.55;0.55;;;;;;;-2.20;75.07;98937.50;5066494;28;20068;-65
2023/11/29 11:14:43;;;;;;;0.68;0.68;;;;;;;-2.14;74.96;98938.47;5066309;28;20064;-65
2023/11/29 11:17:18;;;;;;;1.27;1.08;;;;;;;-2.22;74.67;98934.94;4987888;28;20034;-65
2023/11/29 11:19:45;;;;;;;0.70;0.70;;;;;;;-2.34;74.55;98933.00;5004280;28;20197;-67
2023/11/29 11:22:22;;;;;;;0.80;0.80;;;;;;;-2.43;74.49;98938.75;4988519;28;20062;-66
2023/11/29 11:25:11;;;;;;;0.50;0.50;;;;;;;-2.57;74.61;98928.31;5004827;28;20050;-65
2023/11/29 11:27:48;;;;;;;1.05;0.95;;;;;;;-2.62;74.42;98932.47;5004678;28;20491;-66
2023/11/29 11:30:13;;;;;;;0.70;0.70;;;;;;;-2.71;74.47;98944.94;5004380;28;20487;-66
2023/11/29 11:32:39;;;;;;;1.08;0.98;;;;;;;-2.78;74.85;98946.50;5004191;28;20034;-66
2023/11/29 11:35:17;;;;;;;0.60;0.60;;;;;;;-2.80;74.97;98951.56;5004579;28;20030;-66
2023/11/29 11:37:56;;;;;;;0.85;0.85;;;;;;;-2.82;75.01;98949.78;5004054;28;20033;-66